Eems Servant — PBTI — position and weather

sailwx.info

Track history (hours):
 
Tides and Currents Weather Stations Pressure Air Temp Water Temp Dewpoint Dewpoint Depression Visibility Wind Speed Wind Dir Waves Ship Positions

Eems Servant

Last reported at 2016-Oct-01 04:32 UTC. Time now 2016-Oct-01 12:11 UTC.
Position N 53°14' E 005°14'.

Length 87 m; draft 3 m.

Type: Cargo ship. MMSI: 246236000.

Date/timePositionNaut miles runAvg speedWind from/ knotsBaromVisibWave heightAir tempDewpointWater temp
2016-Oct-01 04:32N 53°14' E 005°14'8 6.8
2016-Oct-01 03:23N 53°19' E 005°04'16 5.8
2016-Oct-01 00:33N 53°28' E 005°28'6 2.9
2016-Sep-30 22:30N 53°25' E 005°37'0 0.1
2016-Sep-30 20:33N 53°25' E 005°37'0 0.1
2016-Sep-30 17:33N 53°26' E 005°38'0 0.0
2016-Sep-30 16:33N 53°26' E 005°38'0 0.0
2016-Sep-30 14:33N 53°26' E 005°38'0 0.0
2016-Sep-30 13:30N 53°26' E 005°38'0 0.0
2016-Sep-30 10:33N 53°26' E 005°38'0 0.0
2016-Sep-30 08:33N 53°26' E 005°38'0 0.1
2016-Sep-30 06:33N 53°25' E 005°38'0 0.1
2016-Sep-30 03:32N 53°25' E 005°37'0 0.1
2016-Sep-30 02:32N 53°26' E 005°37'0 0.0
2016-Sep-29 23:29N 53°25' E 005°37'0 0.0
2016-Sep-29 21:32N 53°25' E 005°37'0 0.1
2016-Sep-29 20:32N 53°25' E 005°37'0 0.0
2016-Sep-29 19:29N 53°25' E 005°37'20 6.8
2016-Sep-29 16:33N 53°23' E 005°04'8 3.5
2016-Sep-29 14:20N 53°16' E 005°10'6 8.3
2016-Sep-29 13:33N 53°12' E 005°18'5 0.9
2016-Sep-29 08:32N 53°11' E 005°26'0 0.0
2016-Sep-29 07:32N 53°11' E 005°26'17 2.4
2016-Sep-29 00:30N 53°25' E 005°09'17 5.6
2016-Sep-28 21:32N 53°25' E 005°37'0 0.0
2016-Sep-28 19:29N 53°25' E 005°38'0 0.1
2016-Sep-28 16:33N 53°26' E 005°38'0 0.0
2016-Sep-28 15:32N 53°26' E 005°38'0 0.0
2016-Sep-28 12:33N 53°26' E 005°38'0 0.1
2016-Sep-28 08:31N 53°26' E 005°37'0 0.0
2016-Sep-28 03:32N 53°25' E 005°37'0 0.0
2016-Sep-28 02:32N 53°25' E 005°37'0 0.1
2016-Sep-28 01:31N 53°25' E 005°37'0 0.0
2016-Sep-27 23:31N 53°26' E 005°37'16 1.8
2016-Sep-27 14:33N 53°11' E 005°25'0 0.0
2016-Sep-27 13:33N 53°11' E 005°25'1 0.2
2016-Sep-27 10:31N 53°11' E 005°26'19 1.9
2016-Sep-27 00:21N 53°21' E 004°59'20 5.2
2016-Sep-26 20:33N 53°28' E 005°30'5 5.1
2016-Sep-26 19:33N 53°26' E 005°38'0 0.0
2016-Sep-26 15:31N 53°26' E 005°38'0 0.0
2016-Sep-26 13:31N 53°26' E 005°38'0 0.0
2016-Sep-26 11:31N 53°26' E 005°38'0 0.0
2016-Sep-26 08:31N 53°26' E 005°38'0 0.0
2016-Sep-26 02:31N 53°26' E 005°38'0 0.0
2016-Sep-26 01:31N 53°26' E 005°38'0 0.0
2016-Sep-26 00:31N 53°26' E 005°38'0 0.0
2016-Sep-25 21:28N 53°26' E 005°38'4 0.9
2016-Sep-25 17:33N 53°27' E 005°33'9 8.8
2016-Sep-25 16:33N 53°26' E 005°18'9 9.4
2016-Sep-25 15:33N 53°23' E 005°03'4 3.8
2016-Sep-25 14:22N 53°19' E 005°07'12 6.5
2016-Sep-25 12:33N 53°11' E 005°22'3 2.6
2016-Sep-25 11:31N 53°11' E 005°26'0 0.0
2016-Sep-25 10:31N 53°11' E 005°26'0 0.0
2016-Sep-25 09:31N 53°11' E 005°26'0 0.0
2016-Sep-25 07:33N 53°11' E 005°26'2 0.5
2016-Sep-25 04:33N 53°11' E 005°24'17 4.2
2016-Sep-25 00:32N 53°24' E 005°06'14 7.1
2016-Sep-24 22:33N 53°28' E 005°29'5 5.1
2016-Sep-24 21:32N 53°26' E 005°37'0 0.0
2016-Sep-24 19:29N 53°26' E 005°37'0 0.0
2016-Sep-24 18:29N 53°26' E 005°37'0 0.0
2016-Sep-24 17:32N 53°26' E 005°37'0 0.2
2016-Sep-24 16:33N 53°26' E 005°37'0 0.2
2016-Sep-24 14:32N 53°26' E 005°38'0 0.0
2016-Sep-24 12:31N 53°26' E 005°38'0 0.0
2016-Sep-24 10:31N 53°26' E 005°38'0 0.0
2016-Sep-24 09:31N 53°26' E 005°38'0 0.1
2016-Sep-24 03:33N 53°26' E 005°37'0 0.0
2016-Sep-24 02:33N 53°26' E 005°37'0 0.1
2016-Sep-24 01:33N 53°26' E 005°37'0 0.0
2016-Sep-24 00:33N 53°26' E 005°37'0 0.0
2016-Sep-23 19:30N 53°26' E 005°37'0 0.0
2016-Sep-23 17:33N 53°26' E 005°37'4 4.1
2016-Sep-23 16:33N 53°28' E 005°31'8 8.2
2016-Sep-23 15:33N 53°26' E 005°18'9 4.3
2016-Sep-23 13:21N 53°19' E 005°07'14 3.7
2016-Sep-23 09:33N 53°11' E 005°26'0 0.0
2016-Sep-23 06:33N 53°11' E 005°26'1 0.7
2016-Sep-23 04:34N 53°10' E 005°24'6 6.2
2016-Sep-23 03:34N 53°14' E 005°16'5 5.3
2016-Sep-23 02:33N 53°18' E 005°10'9 2.8
2016-Sep-22 23:31N 53°26' E 005°16'13 4.4
2016-Sep-22 20:31N 53°26' E 005°38'0 0.0
2016-Sep-22 12:31N 53°26' E 005°38'0 0.0
2016-Sep-22 04:31N 53°26' E 005°37'0 0.0
2016-Sep-22 03:31N 53°26' E 005°37'0 0.0
2016-Sep-22 00:31N 53°26' E 005°38'0 0.0
2016-Sep-21 23:31N 53°26' E 005°38'0 0.0
2016-Sep-21 22:31N 53°26' E 005°38'13 4.5
2016-Sep-21 19:33N 53°26' E 005°15'15 5.0
2016-Sep-21 16:33N 53°11' E 005°21'3 0.4
2016-Sep-21 09:32N 53°11' E 005°26'0 0.0
2016-Sep-21 08:32N 53°11' E 005°26'0 0.0
2016-Sep-21 05:33N 53°11' E 005°26'  
Track history (hours):
 
Tides and Currents Weather Stations Pressure Air Temp Water Temp Dewpoint Dewpoint Depression Visibility Wind Speed Wind Dir Waves Ship Positions

Eems Servant

Last reported at 2016-Oct-01 04:32 UTC. Time now 2016-Oct-01 12:11 UTC.
Position N 53°14' E 005°14'.

Length 87 m; draft 3 m.

Type: Cargo ship. MMSI: 246236000.

Date/timePositionNaut miles runAvg speedWind from/ knotsBaromVisibWave heightAir tempDewpointWater temp
2016-Oct-01 04:32N 53°14' E 005°14'8 6.8
2016-Oct-01 03:23N 53°19' E 005°04'16 5.8
2016-Oct-01 00:33N 53°28' E 005°28'6 2.9
2016-Sep-30 22:30N 53°25' E 005°37'0 0.1
2016-Sep-30 20:33N 53°25' E 005°37'0 0.1
2016-Sep-30 17:33N 53°26' E 005°38'0 0.0
2016-Sep-30 16:33N 53°26' E 005°38'0 0.0
2016-Sep-30 14:33N 53°26' E 005°38'0 0.0
2016-Sep-30 13:30N 53°26' E 005°38'0 0.0
2016-Sep-30 10:33N 53°26' E 005°38'0 0.0
2016-Sep-30 08:33N 53°26' E 005°38'0 0.1
2016-Sep-30 06:33N 53°25' E 005°38'0 0.1
2016-Sep-30 03:32N 53°25' E 005°37'0 0.1
2016-Sep-30 02:32N 53°26' E 005°37'0 0.0
2016-Sep-29 23:29N 53°25' E 005°37'0 0.0
2016-Sep-29 21:32N 53°25' E 005°37'0 0.1
2016-Sep-29 20:32N 53°25' E 005°37'0 0.0
2016-Sep-29 19:29N 53°25' E 005°37'20 6.8
2016-Sep-29 16:33N 53°23' E 005°04'8 3.5
2016-Sep-29 14:20N 53°16' E 005°10'6 8.3
2016-Sep-29 13:33N 53°12' E 005°18'5 0.9
2016-Sep-29 08:32N 53°11' E 005°26'0 0.0
2016-Sep-29 07:32N 53°11' E 005°26'17 2.4
2016-Sep-29 00:30N 53°25' E 005°09'17 5.6
2016-Sep-28 21:32N 53°25' E 005°37'0 0.0
2016-Sep-28 19:29N 53°25' E 005°38'0 0.1
2016-Sep-28 16:33N 53°26' E 005°38'0 0.0
2016-Sep-28 15:32N 53°26' E 005°38'0 0.0
2016-Sep-28 12:33N 53°26' E 005°38'0 0.1
2016-Sep-28 08:31N 53°26' E 005°37'0 0.0
2016-Sep-28 03:32N 53°25' E 005°37'0 0.0
2016-Sep-28 02:32N 53°25' E 005°37'0 0.1
2016-Sep-28 01:31N 53°25' E 005°37'0 0.0
2016-Sep-27 23:31N 53°26' E 005°37'16 1.8
2016-Sep-27 14:33N 53°11' E 005°25'0 0.0
2016-Sep-27 13:33N 53°11' E 005°25'1 0.2
2016-Sep-27 10:31N 53°11' E 005°26'19 1.9
2016-Sep-27 00:21N 53°21' E 004°59'20 5.2
2016-Sep-26 20:33N 53°28' E 005°30'5 5.1
2016-Sep-26 19:33N 53°26' E 005°38'0 0.0
2016-Sep-26 15:31N 53°26' E 005°38'0 0.0
2016-Sep-26 13:31N 53°26' E 005°38'0 0.0
2016-Sep-26 11:31N 53°26' E 005°38'0 0.0
2016-Sep-26 08:31N 53°26' E 005°38'0 0.0
2016-Sep-26 02:31N 53°26' E 005°38'0 0.0
2016-Sep-26 01:31N 53°26' E 005°38'0 0.0
2016-Sep-26 00:31N 53°26' E 005°38'0 0.0
2016-Sep-25 21:28N 53°26' E 005°38'4 0.9
2016-Sep-25 17:33N 53°27' E 005°33'9 8.8
2016-Sep-25 16:33N 53°26' E 005°18'9 9.4
2016-Sep-25 15:33N 53°23' E 005°03'4 3.8
2016-Sep-25 14:22N 53°19' E 005°07'12 6.5
2016-Sep-25 12:33N 53°11' E 005°22'3 2.6
2016-Sep-25 11:31N 53°11' E 005°26'0 0.0
2016-Sep-25 10:31N 53°11' E 005°26'0 0.0
2016-Sep-25 09:31N 53°11' E 005°26'0 0.0
2016-Sep-25 07:33N 53°11' E 005°26'2 0.5
2016-Sep-25 04:33N 53°11' E 005°24'17 4.2
2016-Sep-25 00:32N 53°24' E 005°06'14 7.1
2016-Sep-24 22:33N 53°28' E 005°29'5 5.1
2016-Sep-24 21:32N 53°26' E 005°37'0 0.0
2016-Sep-24 19:29N 53°26' E 005°37'0 0.0
2016-Sep-24 18:29N 53°26' E 005°37'0 0.0
2016-Sep-24 17:32N 53°26' E 005°37'0 0.2
2016-Sep-24 16:33N 53°26' E 005°37'0 0.2
2016-Sep-24 14:32N 53°26' E 005°38'0 0.0
2016-Sep-24 12:31N 53°26' E 005°38'0 0.0
2016-Sep-24 10:31N 53°26' E 005°38'0 0.0
2016-Sep-24 09:31N 53°26' E 005°38'0 0.1
2016-Sep-24 03:33N 53°26' E 005°37'0 0.0
2016-Sep-24 02:33N 53°26' E 005°37'0 0.1
2016-Sep-24 01:33N 53°26' E 005°37'0 0.0
2016-Sep-24 00:33N 53°26' E 005°37'0 0.0
2016-Sep-23 19:30N 53°26' E 005°37'0 0.0
2016-Sep-23 17:33N 53°26' E 005°37'4 4.1
2016-Sep-23 16:33N 53°28' E 005°31'8 8.2
2016-Sep-23 15:33N 53°26' E 005°18'9 4.3
2016-Sep-23 13:21N 53°19' E 005°07'14 3.7
2016-Sep-23 09:33N 53°11' E 005°26'0 0.0
2016-Sep-23 06:33N 53°11' E 005°26'1 0.7
2016-Sep-23 04:34N 53°10' E 005°24'6 6.2
2016-Sep-23 03:34N 53°14' E 005°16'5 5.3
2016-Sep-23 02:33N 53°18' E 005°10'9 2.8
2016-Sep-22 23:31N 53°26' E 005°16'13 4.4
2016-Sep-22 20:31N 53°26' E 005°38'0 0.0
2016-Sep-22 12:31N 53°26' E 005°38'0 0.0
2016-Sep-22 04:31N 53°26' E 005°37'0 0.0
2016-Sep-22 03:31N 53°26' E 005°37'0 0.0
2016-Sep-22 00:31N 53°26' E 005°38'0 0.0
2016-Sep-21 23:31N 53°26' E 005°38'0 0.0
2016-Sep-21 22:31N 53°26' E 005°38'13 4.5
2016-Sep-21 19:33N 53°26' E 005°15'15 5.0
2016-Sep-21 16:33N 53°11' E 005°21'3 0.4
2016-Sep-21 09:32N 53°11' E 005°26'0 0.0
2016-Sep-21 08:32N 53°11' E 005°26'0 0.0
2016-Sep-21 05:33N 53°11' E 005°26'  

Dump ship's entire track history